sensor_id;sensor_type;location;lat;lon;timestamp;temperature;humidity
19868;DHT22;10096;51.112;6.776;2024-01-30T00:02:20;8.70;1.00
19868;DHT22;10096;51.112;6.776;2024-01-30T00:04:47;8.40;1.00
19868;DHT22;10096;51.112;6.776;2024-01-30T00:07:13;8.50;1.00
19868;DHT22;10096;51.112;6.776;2024-01-30T00:09:40;8.40;1.00
19868;DHT22;10096;51.112;6.776;2024-01-30T00:12:07;8.40;1.00
19868;DHT22;10096;51.112;6.776;2024-01-30T00:14:34;8.40;1.00
19868;DHT22;10096;51.112;6.776;2024-01-30T00:17:01;8.30;1.00
19868;DHT22;10096;51.112;6.776;2024-01-30T00:19:29;8.30;1.00
19868;DHT22;10096;51.112;6.776;2024-01-30T00:21:56;8.30;1.00
19868;DHT22;10096;51.112;6.776;2024-01-30T00:24:23;8.30;1.00
19868;DHT22;10096;51.112;6.776;2024-01-30T00:26:50;8.30;1.00
19868;DHT22;10096;51.112;6.776;2024-01-30T00:29:17;8.20;1.00
19868;DHT22;10096;51.112;6.776;2024-01-30T00:31:45;8.20;1.00
19868;DHT22;10096;51.112;6.776;2024-01-30T00:34:12;8.20;1.00
19868;DHT22;10096;51.112;6.776;2024-01-30T00:36:40;8.30;1.00
19868;DHT22;10096;51.112;6.776;2024-01-30T00:39:07;8.30;1.00
19868;DHT22;10096;51.112;6.776;2024-01-30T00:41:35;8.00;1.00
19868;DHT22;10096;51.112;6.776;2024-01-30T00:44:01;7.90;1.00
19868;DHT22;10096;51.112;6.776;2024-01-30T00:46:28;7.80;1.00
19868;DHT22;10096;51.112;6.776;2024-01-30T00:49:04;7.80;1.00
19868;DHT22;10096;51.112;6.776;2024-01-30T00:51:32;7.90;1.00
19868;DHT22;10096;51.112;6.776;2024-01-30T00:54:00;8.00;1.00
19868;DHT22;10096;51.112;6.776;2024-01-30T00:56:28;7.90;1.00
19868;DHT22;10096;51.112;6.776;2024-01-30T00:58:56;7.80;1.00
19868;DHT22;10096;51.112;6.776;2024-01-30T01:01:22;7.70;1.00
19868;DHT22;10096;51.112;6.776;2024-01-30T01:03:49;8.10;1.00
19868;DHT22;10096;51.112;6.776;2024-01-30T01:06:16;7.80;1.00
19868;DHT22;10096;51.112;6.776;2024-01-30T01:08:43;7.80;1.00
19868;DHT22;10096;51.112;6.776;2024-01-30T01:11:11;7.90;1.00
19868;DHT22;10096;51.112;6.776;2024-01-30T01:13:39;7.90;1.00
19868;DHT22;10096;51.112;6.776;2024-01-30T01:16:06;7.90;1.00
19868;DHT22;10096;51.112;6.776;2024-01-30T01:18:33;7.80;1.00
19868;DHT22;10096;51.112;6.776;2024-01-30T01:20:59;7.80;1.00
19868;DHT22;10096;51.112;6.776;2024-01-30T01:23:29;7.80;1.00
19868;DHT22;10096;51.112;6.776;2024-01-30T01:25:58;7.70;1.00
19868;DHT22;10096;51.112;6.776;2024-01-30T01:28:27;7.70;1.00
19868;DHT22;10096;51.112;6.776;2024-01-30T01:30:54;7.60;1.00
19868;DHT22;10096;51.112;6.776;2024-01-30T01:33:24;7.70;1.00
19868;DHT22;10096;51.112;6.776;2024-01-30T01:35:51;7.70;1.00
19868;DHT22;10096;51.112;6.776;2024-01-30T01:38:20;7.60;1.00
19868;DHT22;10096;51.112;6.776;2024-01-30T01:40:47;7.70;1.00
19868;DHT22;10096;51.112;6.776;2024-01-30T01:43:16;7.70;1.00
19868;DHT22;10096;51.112;6.776;2024-01-30T01:45:45;7.70;1.00
19868;DHT22;10096;51.112;6.776;2024-01-30T01:48:12;7.70;1.00
19868;DHT22;10096;51.112;6.776;2024-01-30T01:50:41;7.70;1.00
19868;DHT22;10096;51.112;6.776;2024-01-30T01:53:09;7.80;1.00
19868;DHT22;10096;51.112;6.776;2024-01-30T01:55:37;7.90;1.00
19868;DHT22;10096;51.112;6.776;2024-01-30T01:58:04;7.80;1.00
19868;DHT22;10096;51.112;6.776;2024-01-30T02:00:31;7.90;1.00
19868;DHT22;10096;51.112;6.776;2024-01-30T02:03:00;7.90;1.00
19868;DHT22;10096;51.112;6.776;2024-01-30T02:05:27;7.80;1.00
19868;DHT22;10096;51.112;6.776;2024-01-30T02:07:54;7.90;1.00
19868;DHT22;10096;51.112;6.776;2024-01-30T02:10:21;7.80;1.00
19868;DHT22;10096;51.112;6.776;2024-01-30T02:12:48;7.90;1.00
19868;DHT22;10096;51.112;6.776;2024-01-30T02:15:19;8.00;1.00
19868;DHT22;10096;51.112;6.776;2024-01-30T02:17:46;7.90;1.00
19868;DHT22;10096;51.112;6.776;2024-01-30T02:20:14;7.80;1.00
19868;DHT22;10096;51.112;6.776;2024-01-30T02:22:43;7.90;1.00
19868;DHT22;10096;51.112;6.776;2024-01-30T02:25:09;7.90;1.00
19868;DHT22;10096;51.112;6.776;2024-01-30T02:27:45;8.20;1.00
19868;DHT22;10096;51.112;6.776;2024-01-30T02:30:12;8.00;1.00
19868;DHT22;10096;51.112;6.776;2024-01-30T02:32:39;8.00;1.00
19868;DHT22;10096;51.112;6.776;2024-01-30T02:35:06;8.10;1.00
19868;DHT22;10096;51.112;6.776;2024-01-30T02:37:33;8.00;1.00
19868;DHT22;10096;51.112;6.776;2024-01-30T02:40:01;7.80;1.00
19868;DHT22;10096;51.112;6.776;2024-01-30T02:42:29;8.20;1.00
19868;DHT22;10096;51.112;6.776;2024-01-30T02:44:56;8.00;1.00
19868;DHT22;10096;51.112;6.776;2024-01-30T02:47:23;8.20;1.00
19868;DHT22;10096;51.112;6.776;2024-01-30T02:49:50;8.20;1.00
19868;DHT22;10096;51.112;6.776;2024-01-30T02:52:20;8.00;1.00
19868;DHT22;10096;51.112;6.776;2024-01-30T02:54:47;8.10;1.00
19868;DHT22;10096;51.112;6.776;2024-01-30T02:57:15;8.00;1.00
19868;DHT22;10096;51.112;6.776;2024-01-30T02:59:43;8.20;1.00
19868;DHT22;10096;51.112;6.776;2024-01-30T03:02:09;8.20;1.00
19868;DHT22;10096;51.112;6.776;2024-01-30T03:04:36;8.00;1.00
19868;DHT22;10096;51.112;6.776;2024-01-30T03:07:03;8.20;1.00
19868;DHT22;10096;51.112;6.776;2024-01-30T03:09:30;8.20;1.00
19868;DHT22;10096;51.112;6.776;2024-01-30T03:11:57;8.30;1.00
19868;DHT22;10096;51.112;6.776;2024-01-30T03:14:25;8.10;1.00
19868;DHT22;10096;51.112;6.776;2024-01-30T03:16:52;8.10;1.00
19868;DHT22;10096;51.112;6.776;2024-01-30T03:19:19;8.10;1.00
19868;DHT22;10096;51.112;6.776;2024-01-30T03:21:46;8.10;1.00
19868;DHT22;10096;51.112;6.776;2024-01-30T03:24:13;8.20;1.00
19868;DHT22;10096;51.112;6.776;2024-01-30T03:26:40;8.20;1.00
19868;DHT22;10096;51.112;6.776;2024-01-30T03:29:07;8.20;1.00
19868;DHT22;10096;51.112;6.776;2024-01-30T03:31:38;8.50;1.00
19868;DHT22;10096;51.112;6.776;2024-01-30T03:34:05;8.30;1.00
19868;DHT22;10096;51.112;6.776;2024-01-30T03:36:32;8.30;1.00
19868;DHT22;10096;51.112;6.776;2024-01-30T03:39:00;8.30;1.00
19868;DHT22;10096;51.112;6.776;2024-01-30T03:41:26;8.30;1.00
19868;DHT22;10096;51.112;6.776;2024-01-30T03:43:55;8.20;1.00
19868;DHT22;10096;51.112;6.776;2024-01-30T03:46:22;8.20;1.00
19868;DHT22;10096;51.112;6.776;2024-01-30T03:48:51;8.20;1.00
19868;DHT22;10096;51.112;6.776;2024-01-30T03:51:17;8.10;1.00
19868;DHT22;10096;51.112;6.776;2024-01-30T03:53:45;8.20;1.00
19868;DHT22;10096;51.112;6.776;2024-01-30T03:56:12;8.10;1.00
19868;DHT22;10096;51.112;6.776;2024-01-30T03:58:40;8.30;1.00
19868;DHT22;10096;51.112;6.776;2024-01-30T04:01:07;8.30;1.00
19868;DHT22;10096;51.112;6.776;2024-01-30T04:03:33;8.00;1.00
19868;DHT22;10096;51.112;6.776;2024-01-30T04:06:06;8.10;1.00
19868;DHT22;10096;51.112;6.776;2024-01-30T04:08:33;8.10;1.00
19868;DHT22;10096;51.112;6.776;2024-01-30T04:11:04;8.00;1.00
19868;DHT22;10096;51.112;6.776;2024-01-30T04:13:32;8.10;1.00
19868;DHT22;10096;51.112;6.776;2024-01-30T04:16:00;8.10;1.00
19868;DHT22;10096;51.112;6.776;2024-01-30T04:18:27;8.10;1.00
19868;DHT22;10096;51.112;6.776;2024-01-30T04:20:54;8.10;1.00
19868;DHT22;10096;51.112;6.776;2024-01-30T04:23:23;8.00;1.00
19868;DHT22;10096;51.112;6.776;2024-01-30T04:25:50;8.00;1.00
19868;DHT22;10096;51.112;6.776;2024-01-30T04:28:16;8.00;1.00
19868;DHT22;10096;51.112;6.776;2024-01-30T04:30:43;8.00;1.00
19868;DHT22;10096;51.112;6.776;2024-01-30T04:33:19;7.90;1.00
19868;DHT22;10096;51.112;6.776;2024-01-30T04:35:45;7.90;1.00
19868;DHT22;10096;51.112;6.776;2024-01-30T04:38:12;8.10;1.00
19868;DHT22;10096;51.112;6.776;2024-01-30T04:40:41;7.80;1.00
19868;DHT22;10096;51.112;6.776;2024-01-30T04:43:08;8.00;1.00
19868;DHT22;10096;51.112;6.776;2024-01-30T04:45:35;7.80;1.00
19868;DHT22;10096;51.112;6.776;2024-01-30T04:48:03;7.80;1.00
19868;DHT22;10096;51.112;6.776;2024-01-30T04:50:30;7.80;1.00
19868;DHT22;10096;51.112;6.776;2024-01-30T04:52:57;7.70;1.00
19868;DHT22;10096;51.112;6.776;2024-01-30T04:55:24;7.80;1.00
19868;DHT22;10096;51.112;6.776;2024-01-30T04:57:52;7.70;1.00
19868;DHT22;10096;51.112;6.776;2024-01-30T05:00:19;7.70;1.00
19868;DHT22;10096;51.112;6.776;2024-01-30T05:02:46;7.80;1.00
19868;DHT22;10096;51.112;6.776;2024-01-30T05:05:13;7.70;1.00
19868;DHT22;10096;51.112;6.776;2024-01-30T05:07:41;7.80;1.00
19868;DHT22;10096;51.112;6.776;2024-01-30T05:10:09;7.60;1.00
19868;DHT22;10096;51.112;6.776;2024-01-30T05:12:43;7.70;1.00
19868;DHT22;10096;51.112;6.776;2024-01-30T05:15:17;7.80;1.00
19868;DHT22;10096;51.112;6.776;2024-01-30T05:17:50;7.80;1.00
19868;DHT22;10096;51.112;6.776;2024-01-30T05:20:27;7.80;1.00
19868;DHT22;10096;51.112;6.776;2024-01-30T05:23:01;7.80;1.00
19868;DHT22;10096;51.112;6.776;2024-01-30T05:25:29;7.70;1.00
19868;DHT22;10096;51.112;6.776;2024-01-30T05:27:56;7.70;1.00
19868;DHT22;10096;51.112;6.776;2024-01-30T05:30:25;7.80;1.00
19868;DHT22;10096;51.112;6.776;2024-01-30T05:32:56;7.80;1.00
19868;DHT22;10096;51.112;6.776;2024-01-30T05:35:23;7.80;1.00
19868;DHT22;10096;51.112;6.776;2024-01-30T05:37:54;7.70;1.00
19868;DHT22;10096;51.112;6.776;2024-01-30T05:40:21;7.70;1.00
19868;DHT22;10096;51.112;6.776;2024-01-30T05:42:49;7.70;1.00
19868;DHT22;10096;51.112;6.776;2024-01-30T05:45:19;7.70;1.00
19868;DHT22;10096;51.112;6.776;2024-01-30T05:47:51;7.90;1.00
19868;DHT22;10096;51.112;6.776;2024-01-30T05:50:18;7.60;1.00
19868;DHT22;10096;51.112;6.776;2024-01-30T05:52:56;7.60;1.00
19868;DHT22;10096;51.112;6.776;2024-01-30T05:55:26;7.80;1.00
19868;DHT22;10096;51.112;6.776;2024-01-30T05:57:53;7.70;1.00
19868;DHT22;10096;51.112;6.776;2024-01-30T06:00:25;7.70;1.00
19868;DHT22;10096;51.112;6.776;2024-01-30T06:02:55;7.60;1.00
19868;DHT22;10096;51.112;6.776;2024-01-30T06:05:22;7.70;1.00
19868;DHT22;10096;51.112;6.776;2024-01-30T06:07:48;7.80;1.00
19868;DHT22;10096;51.112;6.776;2024-01-30T06:10:30;7.60;1.00
19868;DHT22;10096;51.112;6.776;2024-01-30T06:12:57;7.70;1.00
19868;DHT22;10096;51.112;6.776;2024-01-30T06:15:24;7.60;1.00
19868;DHT22;10096;51.112;6.776;2024-01-30T06:17:56;7.60;1.00
19868;DHT22;10096;51.112;6.776;2024-01-30T06:20:23;7.60;1.00
19868;DHT22;10096;51.112;6.776;2024-01-30T06:22:50;7.60;1.00
19868;DHT22;10096;51.112;6.776;2024-01-30T06:25:17;7.60;1.00
19868;DHT22;10096;51.112;6.776;2024-01-30T06:27:43;7.60;1.00
19868;DHT22;10096;51.112;6.776;2024-01-30T06:30:15;7.70;1.00
19868;DHT22;10096;51.112;6.776;2024-01-30T06:32:44;7.90;1.00
19868;DHT22;10096;51.112;6.776;2024-01-30T06:35:14;7.80;1.00
19868;DHT22;10096;51.112;6.776;2024-01-30T06:37:44;7.80;1.00
19868;DHT22;10096;51.112;6.776;2024-01-30T06:40:35;7.80;1.00
19868;DHT22;10096;51.112;6.776;2024-01-30T06:43:02;7.80;1.00
19868;DHT22;10096;51.112;6.776;2024-01-30T06:45:29;7.80;1.00
19868;DHT22;10096;51.112;6.776;2024-01-30T06:47:56;7.90;1.00
19868;DHT22;10096;51.112;6.776;2024-01-30T06:50:24;7.90;1.00
19868;DHT22;10096;51.112;6.776;2024-01-30T06:53:05;7.90;1.00
19868;DHT22;10096;51.112;6.776;2024-01-30T06:55:41;7.90;1.00
19868;DHT22;10096;51.112;6.776;2024-01-30T06:58:11;8.00;1.00
19868;DHT22;10096;51.112;6.776;2024-01-30T07:00:45;8.00;1.00
19868;DHT22;10096;51.112;6.776;2024-01-30T07:03:11;8.00;1.00
19868;DHT22;10096;51.112;6.776;2024-01-30T07:05:40;8.10;1.00
19868;DHT22;10096;51.112;6.776;2024-01-30T07:08:09;8.00;1.00
19868;DHT22;10096;51.112;6.776;2024-01-30T07:13:27;8.20;1.00
19868;DHT22;10096;51.112;6.776;2024-01-30T07:15:54;8.30;1.00
19868;DHT22;10096;51.112;6.776;2024-01-30T07:18:21;8.10;1.00
19868;DHT22;10096;51.112;6.776;2024-01-30T07:20:50;8.10;1.00
19868;DHT22;10096;51.112;6.776;2024-01-30T07:23:20;8.10;1.00
19868;DHT22;10096;51.112;6.776;2024-01-30T07:25:49;8.10;1.00
19868;DHT22;10096;51.112;6.776;2024-01-30T07:28:18;8.30;1.00
19868;DHT22;10096;51.112;6.776;2024-01-30T07:30:45;8.30;1.00
19868;DHT22;10096;51.112;6.776;2024-01-30T07:33:12;8.20;1.00
19868;DHT22;10096;51.112;6.776;2024-01-30T07:35:39;8.20;1.00
19868;DHT22;10096;51.112;6.776;2024-01-30T07:38:16;8.20;1.00
19868;DHT22;10096;51.112;6.776;2024-01-30T07:41:02;8.20;1.00
19868;DHT22;10096;51.112;6.776;2024-01-30T07:43:49;8.20;1.00
19868;DHT22;10096;51.112;6.776;2024-01-30T07:46:19;8.30;1.00
19868;DHT22;10096;51.112;6.776;2024-01-30T07:48:45;8.10;1.00
19868;DHT22;10096;51.112;6.776;2024-01-30T07:51:12;8.20;1.00
19868;DHT22;10096;51.112;6.776;2024-01-30T07:53:41;8.20;1.00
19868;DHT22;10096;51.112;6.776;2024-01-30T07:56:08;8.20;1.00
19868;DHT22;10096;51.112;6.776;2024-01-30T07:58:35;8.20;1.00
19868;DHT22;10096;51.112;6.776;2024-01-30T08:01:01;8.30;1.00
19868;DHT22;10096;51.112;6.776;2024-01-30T08:03:28;8.30;1.00
19868;DHT22;10096;51.112;6.776;2024-01-30T08:05:55;8.30;1.00
19868;DHT22;10096;51.112;6.776;2024-01-30T08:08:23;8.30;1.00
19868;DHT22;10096;51.112;6.776;2024-01-30T08:10:54;8.40;1.00
19868;DHT22;10096;51.112;6.776;2024-01-30T08:13:21;8.60;1.00
19868;DHT22;10096;51.112;6.776;2024-01-30T08:15:48;8.40;1.00
19868;DHT22;10096;51.112;6.776;2024-01-30T08:18:23;8.40;1.00
19868;DHT22;10096;51.112;6.776;2024-01-30T08:20:50;8.30;1.00
19868;DHT22;10096;51.112;6.776;2024-01-30T08:23:17;8.50;1.00
19868;DHT22;10096;51.112;6.776;2024-01-30T08:25:46;8.80;1.00
19868;DHT22;10096;51.112;6.776;2024-01-30T08:28:14;8.60;1.00
19868;DHT22;10096;51.112;6.776;2024-01-30T08:30:51;8.60;1.00
19868;DHT22;10096;51.112;6.776;2024-01-30T08:33:19;8.90;1.00
19868;DHT22;10096;51.112;6.776;2024-01-30T08:35:55;8.80;1.00
19868;DHT22;10096;51.112;6.776;2024-01-30T08:38:27;8.60;1.00
19868;DHT22;10096;51.112;6.776;2024-01-30T08:40:54;8.90;1.00
19868;DHT22;10096;51.112;6.776;2024-01-30T08:43:23;8.90;99.90
19868;DHT22;10096;51.112;6.776;2024-01-30T08:45:50;8.90;99.90
19868;DHT22;10096;51.112;6.776;2024-01-30T08:48:30;9.00;99.90
19868;DHT22;10096;51.112;6.776;2024-01-30T08:54:06;9.10;99.90
19868;DHT22;10096;51.112;6.776;2024-01-30T08:56:36;9.20;99.90
19868;DHT22;10096;51.112;6.776;2024-01-30T08:59:10;9.30;99.90
19868;DHT22;10096;51.112;6.776;2024-01-30T09:01:48;9.30;99.90
19868;DHT22;10096;51.112;6.776;2024-01-30T09:04:18;9.30;99.90
19868;DHT22;10096;51.112;6.776;2024-01-30T09:06:49;9.40;99.90
19868;DHT22;10096;51.112;6.776;2024-01-30T09:09:16;9.40;99.90
19868;DHT22;10096;51.112;6.776;2024-01-30T09:11:43;9.50;99.90
19868;DHT22;10096;51.112;6.776;2024-01-30T09:14:11;9.50;99.90
19868;DHT22;10096;51.112;6.776;2024-01-30T09:16:41;9.60;99.90
19868;DHT22;10096;51.112;6.776;2024-01-30T09:19:08;9.60;99.90
19868;DHT22;10096;51.112;6.776;2024-01-30T09:21:38;9.70;99.90
19868;DHT22;10096;51.112;6.776;2024-01-30T09:24:09;9.80;99.90
19868;DHT22;10096;51.112;6.776;2024-01-30T09:26:43;9.80;99.90
19868;DHT22;10096;51.112;6.776;2024-01-30T09:29:15;9.80;99.90
19868;DHT22;10096;51.112;6.776;2024-01-30T09:31:43;9.90;99.90
19868;DHT22;10096;51.112;6.776;2024-01-30T09:34:13;9.90;99.90
19868;DHT22;10096;51.112;6.776;2024-01-30T09:36:44;10.00;99.90
19868;DHT22;10096;51.112;6.776;2024-01-30T09:39:20;10.10;99.90
19868;DHT22;10096;51.112;6.776;2024-01-30T09:41:49;10.10;99.90
19868;DHT22;10096;51.112;6.776;2024-01-30T09:44:19;10.30;99.90
19868;DHT22;10096;51.112;6.776;2024-01-30T09:46:49;10.30;99.90
19868;DHT22;10096;51.112;6.776;2024-01-30T09:49:28;10.30;99.90
19868;DHT22;10096;51.112;6.776;2024-01-30T09:52:01;10.40;99.90
19868;DHT22;10096;51.112;6.776;2024-01-30T09:54:32;10.30;99.90
19868;DHT22;10096;51.112;6.776;2024-01-30T09:57:04;10.40;99.90
19868;DHT22;10096;51.112;6.776;2024-01-30T09:59:33;10.40;99.90
19868;DHT22;10096;51.112;6.776;2024-01-30T10:02:00;10.50;99.90
19868;DHT22;10096;51.112;6.776;2024-01-30T10:04:29;10.50;99.90
19868;DHT22;10096;51.112;6.776;2024-01-30T10:06:56;10.60;99.90
19868;DHT22;10096;51.112;6.776;2024-01-30T10:09:24;10.60;99.90
19868;DHT22;10096;51.112;6.776;2024-01-30T10:11:52;10.70;99.90
19868;DHT22;10096;51.112;6.776;2024-01-30T10:14:19;10.90;99.90
19868;DHT22;10096;51.112;6.776;2024-01-30T10:16:54;10.70;99.90
19868;DHT22;10096;51.112;6.776;2024-01-30T10:19:22;10.80;99.90
19868;DHT22;10096;51.112;6.776;2024-01-30T10:21:49;10.80;99.90
19868;DHT22;10096;51.112;6.776;2024-01-30T10:24:23;10.90;99.90
19868;DHT22;10096;51.112;6.776;2024-01-30T10:26:50;11.10;99.90
19868;DHT22;10096;51.112;6.776;2024-01-30T10:29:17;11.10;99.90
19868;DHT22;10096;51.112;6.776;2024-01-30T10:31:44;11.00;99.90
19868;DHT22;10096;51.112;6.776;2024-01-30T10:34:21;11.10;99.90
19868;DHT22;10096;51.112;6.776;2024-01-30T10:36:50;11.20;99.90
19868;DHT22;10096;51.112;6.776;2024-01-30T10:39:22;11.10;99.90
19868;DHT22;10096;51.112;6.776;2024-01-30T10:42:03;11.30;99.90
19868;DHT22;10096;51.112;6.776;2024-01-30T10:44:37;11.20;99.90
19868;DHT22;10096;51.112;6.776;2024-01-30T10:47:08;11.20;99.90
19868;DHT22;10096;51.112;6.776;2024-01-30T10:49:41;11.20;99.90
19868;DHT22;10096;51.112;6.776;2024-01-30T10:52:09;11.30;99.90
19868;DHT22;10096;51.112;6.776;2024-01-30T10:54:37;11.10;99.90
19868;DHT22;10096;51.112;6.776;2024-01-30T10:57:06;11.40;99.90
19868;DHT22;10096;51.112;6.776;2024-01-30T10:59:35;11.40;99.90
19868;DHT22;10096;51.112;6.776;2024-01-30T11:02:06;11.30;99.90
19868;DHT22;10096;51.112;6.776;2024-01-30T11:04:37;11.30;99.90
19868;DHT22;10096;51.112;6.776;2024-01-30T11:07:15;11.30;99.90
19868;DHT22;10096;51.112;6.776;2024-01-30T11:09:50;11.40;99.90
19868;DHT22;10096;51.112;6.776;2024-01-30T11:12:21;11.30;99.90
19868;DHT22;10096;51.112;6.776;2024-01-30T11:15:05;11.50;99.90
19868;DHT22;10096;51.112;6.776;2024-01-30T11:22:54;11.60;99.90
19868;DHT22;10096;51.112;6.776;2024-01-30T11:25:24;11.70;99.90
19868;DHT22;10096;51.112;6.776;2024-01-30T11:27:56;11.70;99.90
19868;DHT22;10096;51.112;6.776;2024-01-30T11:30:24;11.90;99.90
19868;DHT22;10096;51.112;6.776;2024-01-30T11:33:05;11.90;99.90
19868;DHT22;10096;51.112;6.776;2024-01-30T11:35:42;11.80;99.90
19868;DHT22;10096;51.112;6.776;2024-01-30T11:38:13;12.00;99.90
19868;DHT22;10096;51.112;6.776;2024-01-30T11:40:44;12.00;99.90
19868;DHT22;10096;51.112;6.776;2024-01-30T11:43:11;12.00;99.90
19868;DHT22;10096;51.112;6.776;2024-01-30T11:45:38;12.10;99.90
19868;DHT22;10096;51.112;6.776;2024-01-30T11:48:07;12.10;99.90
19868;DHT22;10096;51.112;6.776;2024-01-30T11:50:38;12.10;99.90
19868;DHT22;10096;51.112;6.776;2024-01-30T11:53:08;12.00;99.90
19868;DHT22;10096;51.112;6.776;2024-01-30T11:55:39;12.00;99.90
19868;DHT22;10096;51.112;6.776;2024-01-30T11:58:06;12.10;99.90
19868;DHT22;10096;51.112;6.776;2024-01-30T12:00:33;12.30;99.90
19868;DHT22;10096;51.112;6.776;2024-01-30T12:03:01;12.60;99.90
19868;DHT22;10096;51.112;6.776;2024-01-30T12:05:38;12.70;99.90
19868;DHT22;10096;51.112;6.776;2024-01-30T12:08:15;12.70;99.90
19868;DHT22;10096;51.112;6.776;2024-01-30T12:10:47;12.60;99.90
19868;DHT22;10096;51.112;6.776;2024-01-30T12:13:32;12.80;99.90
19868;DHT22;10096;51.112;6.776;2024-01-30T12:16:00;12.80;99.90
19868;DHT22;10096;51.112;6.776;2024-01-30T12:18:27;13.00;99.90
19868;DHT22;10096;51.112;6.776;2024-01-30T12:20:57;13.00;99.90
19868;DHT22;10096;51.112;6.776;2024-01-30T12:23:35;12.90;99.90
19868;DHT22;10096;51.112;6.776;2024-01-30T12:26:04;12.90;99.90
19868;DHT22;10096;51.112;6.776;2024-01-30T12:28:32;12.90;99.90
19868;DHT22;10096;51.112;6.776;2024-01-30T12:31:02;12.90;99.90
19868;DHT22;10096;51.112;6.776;2024-01-30T12:33:33;12.90;99.90
19868;DHT22;10096;51.112;6.776;2024-01-30T12:36:01;12.90;99.90
19868;DHT22;10096;51.112;6.776;2024-01-30T12:38:28;12.90;99.90
19868;DHT22;10096;51.112;6.776;2024-01-30T12:40:55;12.90;99.90
19868;DHT22;10096;51.112;6.776;2024-01-30T12:43:26;13.10;99.90
19868;DHT22;10096;51.112;6.776;2024-01-30T12:45:55;13.10;99.90
19868;DHT22;10096;51.112;6.776;2024-01-30T12:48:27;13.10;99.90
19868;DHT22;10096;51.112;6.776;2024-01-30T12:50:58;13.00;99.90
19868;DHT22;10096;51.112;6.776;2024-01-30T12:53:29;13.20;99.90
19868;DHT22;10096;51.112;6.776;2024-01-30T12:55:56;13.10;99.90
19868;DHT22;10096;51.112;6.776;2024-01-30T12:58:23;13.30;99.90
19868;DHT22;10096;51.112;6.776;2024-01-30T13:00:52;13.00;99.90
19868;DHT22;10096;51.112;6.776;2024-01-30T13:03:22;13.00;99.90
19868;DHT22;10096;51.112;6.776;2024-01-30T13:05:54;13.10;99.90
19868;DHT22;10096;51.112;6.776;2024-01-30T13:08:29;13.20;99.90
19868;DHT22;10096;51.112;6.776;2024-01-30T13:11:00;13.10;99.90
19868;DHT22;10096;51.112;6.776;2024-01-30T13:13:33;13.10;99.90
19868;DHT22;10096;51.112;6.776;2024-01-30T13:16:03;13.00;99.90
19868;DHT22;10096;51.112;6.776;2024-01-30T13:18:31;13.00;99.90
19868;DHT22;10096;51.112;6.776;2024-01-30T13:20:58;13.00;99.90
19868;DHT22;10096;51.112;6.776;2024-01-30T13:23:30;13.00;99.90
19868;DHT22;10096;51.112;6.776;2024-01-30T13:25:56;12.90;99.90
19868;DHT22;10096;51.112;6.776;2024-01-30T13:28:29;12.90;99.90
19868;DHT22;10096;51.112;6.776;2024-01-30T13:30:58;12.90;99.90
19868;DHT22;10096;51.112;6.776;2024-01-30T13:33:32;12.90;99.90
19868;DHT22;10096;51.112;6.776;2024-01-30T13:35:59;12.80;99.90
19868;DHT22;10096;51.112;6.776;2024-01-30T13:38:36;12.90;99.90
19868;DHT22;10096;51.112;6.776;2024-01-30T13:41:06;12.90;99.90
19868;DHT22;10096;51.112;6.776;2024-01-30T13:43:34;12.80;99.90
19868;DHT22;10096;51.112;6.776;2024-01-30T13:46:10;13.00;99.90
19868;DHT22;10096;51.112;6.776;2024-01-30T13:48:42;12.90;99.90
19868;DHT22;10096;51.112;6.776;2024-01-30T13:51:09;12.80;99.90
19868;DHT22;10096;51.112;6.776;2024-01-30T13:53:36;12.90;99.90
19868;DHT22;10096;51.112;6.776;2024-01-30T13:56:03;12.90;99.90
19868;DHT22;10096;51.112;6.776;2024-01-30T13:58:32;12.90;99.90
19868;DHT22;10096;51.112;6.776;2024-01-30T14:01:02;12.90;99.90
19868;DHT22;10096;51.112;6.776;2024-01-30T14:03:34;13.00;99.90
19868;DHT22;10096;51.112;6.776;2024-01-30T14:06:02;13.20;99.90
19868;DHT22;10096;51.112;6.776;2024-01-30T14:08:29;13.10;99.90
19868;DHT22;10096;51.112;6.776;2024-01-30T14:10:56;13.00;99.90
19868;DHT22;10096;51.112;6.776;2024-01-30T14:13:30;13.10;99.90
19868;DHT22;10096;51.112;6.776;2024-01-30T14:16:24;13.20;99.90
19868;DHT22;10096;51.112;6.776;2024-01-30T14:18:52;13.40;99.90
19868;DHT22;10096;51.112;6.776;2024-01-30T14:21:26;13.20;99.90
19868;DHT22;10096;51.112;6.776;2024-01-30T14:23:58;13.30;99.90
19868;DHT22;10096;51.112;6.776;2024-01-30T14:26:25;13.20;99.90
19868;DHT22;10096;51.112;6.776;2024-01-30T14:28:52;13.30;99.90
19868;DHT22;10096;51.112;6.776;2024-01-30T14:31:21;13.10;99.90
19868;DHT22;10096;51.112;6.776;2024-01-30T14:34:00;13.10;99.90
19868;DHT22;10096;51.112;6.776;2024-01-30T14:36:29;13.10;99.90
19868;DHT22;10096;51.112;6.776;2024-01-30T14:38:56;13.00;99.90
19868;DHT22;10096;51.112;6.776;2024-01-30T14:41:23;13.00;99.90
19868;DHT22;10096;51.112;6.776;2024-01-30T14:43:53;13.20;99.90
19868;DHT22;10096;51.112;6.776;2024-01-30T14:46:23;12.90;99.90
19868;DHT22;10096;51.112;6.776;2024-01-30T14:48:52;13.00;99.90
19868;DHT22;10096;51.112;6.776;2024-01-30T14:51:18;12.80;99.90
19868;DHT22;10096;51.112;6.776;2024-01-30T14:53:52;12.90;99.90
19868;DHT22;10096;51.112;6.776;2024-01-30T14:56:19;12.90;99.90
19868;DHT22;10096;51.112;6.776;2024-01-30T14:58:47;13.00;99.90
19868;DHT22;10096;51.112;6.776;2024-01-30T15:01:15;12.90;99.90
19868;DHT22;10096;51.112;6.776;2024-01-30T15:03:44;12.90;99.90
19868;DHT22;10096;51.112;6.776;2024-01-30T15:06:14;12.80;99.90
19868;DHT22;10096;51.112;6.776;2024-01-30T15:08:41;12.80;99.90
19868;DHT22;10096;51.112;6.776;2024-01-30T15:11:22;12.80;99.90
19868;DHT22;10096;51.112;6.776;2024-01-30T15:13:50;12.90;99.90
19868;DHT22;10096;51.112;6.776;2024-01-30T15:16:19;12.70;99.90
19868;DHT22;10096;51.112;6.776;2024-01-30T15:18:46;12.60;99.90
19868;DHT22;10096;51.112;6.776;2024-01-30T15:21:13;12.50;99.90
19868;DHT22;10096;51.112;6.776;2024-01-30T15:23:45;12.50;99.90
19868;DHT22;10096;51.112;6.776;2024-01-30T15:26:15;12.50;99.90
19868;DHT22;10096;51.112;6.776;2024-01-30T15:28:44;12.60;99.90
19868;DHT22;10096;51.112;6.776;2024-01-30T15:31:22;12.40;99.90
19868;DHT22;10096;51.112;6.776;2024-01-30T15:33:49;12.50;99.90
19868;DHT22;10096;51.112;6.776;2024-01-30T15:36:16;12.50;99.90
19868;DHT22;10096;51.112;6.776;2024-01-30T15:38:45;12.50;99.90
19868;DHT22;10096;51.112;6.776;2024-01-30T15:41:22;12.50;99.90
19868;DHT22;10096;51.112;6.776;2024-01-30T15:44:00;12.50;99.90
19868;DHT22;10096;51.112;6.776;2024-01-30T15:46:51;12.40;99.90
19868;DHT22;10096;51.112;6.776;2024-01-30T15:49:18;12.30;99.90
19868;DHT22;10096;51.112;6.776;2024-01-30T15:51:45;12.20;99.90
19868;DHT22;10096;51.112;6.776;2024-01-30T15:54:13;12.00;99.90
19868;DHT22;10096;51.112;6.776;2024-01-30T15:56:41;11.90;99.90
19868;DHT22;10096;51.112;6.776;2024-01-30T15:59:09;12.00;99.90
19868;DHT22;10096;51.112;6.776;2024-01-30T16:01:36;12.00;99.90
19868;DHT22;10096;51.112;6.776;2024-01-30T16:04:06;12.10;99.90
19868;DHT22;10096;51.112;6.776;2024-01-30T16:06:33;11.90;99.90
19868;DHT22;10096;51.112;6.776;2024-01-30T16:09:01;11.90;99.90
19868;DHT22;10096;51.112;6.776;2024-01-30T16:11:29;11.90;99.90
19868;DHT22;10096;51.112;6.776;2024-01-30T16:13:59;11.90;99.90